Tiny Town, Kentucky
Current Conditions -  °F | °C
As of 2:52 AM on Friday 19 Dec 2014 (Local Time) from KCKV Reporting Station
Haze Haze  
Wind Chill: 29°   Ceiling: 5000
Heat Index: 34°   Visibility: 6mi
Dew Point: 29°   Wind: 6mph
Humidity: 82%   Direction: 10°N
Pressure: 30.25"   Gusts: NA
Location:  36.705°N, 87.1786°W
Report Text: KCKV 190852Z AUTO 01005KT 6SM HZ OVC050 01/M02 A3025 RMK AO2 SLP247 T00111017 58002
Loading
Personal Weather Stations






























Interactive Weather Map New forecast layout! Learn more

10-Day Weather Forecast

Advertisements
Track Severe Weather on mobile